sensor_id;sensor_type;location;lat;lon;timestamp;P1;durP1;ratioP1;P2;durP2;ratioP2
75620;SDS011;64574;48.506;-2.750;2023-02-03T00:02:19;1.90;;;0.77;;
75620;SDS011;64574;48.506;-2.750;2023-02-03T00:04:44;3.20;;;1.10;;
75620;SDS011;64574;48.506;-2.750;2023-02-03T00:07:10;4.95;;;0.90;;
75620;SDS011;64574;48.506;-2.750;2023-02-03T00:09:37;2.38;;;1.02;;
75620;SDS011;64574;48.506;-2.750;2023-02-03T00:12:03;3.65;;;0.93;;
75620;SDS011;64574;48.506;-2.750;2023-02-03T00:14:29;3.13;;;0.80;;
75620;SDS011;64574;48.506;-2.750;2023-02-03T00:16:55;4.03;;;0.90;;
75620;SDS011;64574;48.506;-2.750;2023-02-03T00:19:20;3.65;;;1.17;;
75620;SDS011;64574;48.506;-2.750;2023-02-03T00:21:46;4.88;;;0.90;;
75620;SDS011;64574;48.506;-2.750;2023-02-03T00:24:11;5.50;;;1.23;;
75620;SDS011;64574;48.506;-2.750;2023-02-03T00:26:41;3.80;;;0.98;;
75620;SDS011;64574;48.506;-2.750;2023-02-03T00:29:07;4.63;;;0.90;;
75620;SDS011;64574;48.506;-2.750;2023-02-03T00:31:33;2.47;;;0.93;;
75620;SDS011;64574;48.506;-2.750;2023-02-03T00:33:59;2.35;;;0.93;;
75620;SDS011;64574;48.506;-2.750;2023-02-03T00:36:25;2.10;;;0.98;;
75620;SDS011;64574;48.506;-2.750;2023-02-03T00:38:51;1.83;;;1.02;;
75620;SDS011;64574;48.506;-2.750;2023-02-03T00:41:17;3.00;;;1.13;;
75620;SDS011;64574;48.506;-2.750;2023-02-03T00:43:43;3.40;;;1.10;;
75620;SDS011;64574;48.506;-2.750;2023-02-03T00:46:09;2.63;;;1.05;;
75620;SDS011;64574;48.506;-2.750;2023-02-03T00:48:35;4.47;;;1.20;;
75620;SDS011;64574;48.506;-2.750;2023-02-03T00:51:00;3.17;;;1.20;;
75620;SDS011;64574;48.506;-2.750;2023-02-03T00:53:26;3.78;;;0.90;;
75620;SDS011;64574;48.506;-2.750;2023-02-03T00:55:51;2.40;;;0.98;;
75620;SDS011;64574;48.506;-2.750;2023-02-03T00:58:17;5.88;;;1.23;;
75620;SDS011;64574;48.506;-2.750;2023-02-03T01:00:43;6.20;;;1.60;;
75620;SDS011;64574;48.506;-2.750;2023-02-03T01:03:08;3.03;;;1.30;;
75620;SDS011;64574;48.506;-2.750;2023-02-03T01:05:34;3.05;;;1.08;;
75620;SDS011;64574;48.506;-2.750;2023-02-03T01:08:00;4.63;;;1.50;;
75620;SDS011;64574;48.506;-2.750;2023-02-03T01:10:26;2.15;;;1.00;;
75620;SDS011;64574;48.506;-2.750;2023-02-03T01:12:52;2.70;;;1.25;;
75620;SDS011;64574;48.506;-2.750;2023-02-03T01:15:18;2.03;;;1.17;;
75620;SDS011;64574;48.506;-2.750;2023-02-03T01:17:43;3.38;;;1.10;;
75620;SDS011;64574;48.506;-2.750;2023-02-03T01:20:09;2.42;;;1.00;;
75620;SDS011;64574;48.506;-2.750;2023-02-03T01:22:40;3.40;;;1.20;;
75620;SDS011;64574;48.506;-2.750;2023-02-03T01:25:06;3.13;;;1.33;;
75620;SDS011;64574;48.506;-2.750;2023-02-03T01:27:32;3.15;;;1.13;;
75620;SDS011;64574;48.506;-2.750;2023-02-03T01:29:58;3.40;;;1.10;;
75620;SDS011;64574;48.506;-2.750;2023-02-03T01:32:23;3.17;;;1.00;;
75620;SDS011;64574;48.506;-2.750;2023-02-03T01:34:49;2.40;;;0.90;;
75620;SDS011;64574;48.506;-2.750;2023-02-03T01:37:15;3.15;;;0.90;;
75620;SDS011;64574;48.506;-2.750;2023-02-03T01:39:42;3.53;;;1.15;;
75620;SDS011;64574;48.506;-2.750;2023-02-03T01:42:11;3.20;;;1.00;;
75620;SDS011;64574;48.506;-2.750;2023-02-03T01:47:10;4.40;;;1.10;;
75620;SDS011;64574;48.506;-2.750;2023-02-03T01:52:40;1.98;;;0.82;;
75620;SDS011;64574;48.506;-2.750;2023-02-03T01:55:09;3.40;;;0.90;;
75620;SDS011;64574;48.506;-2.750;2023-02-03T01:57:39;4.28;;;1.00;;
75620;SDS011;64574;48.506;-2.750;2023-02-03T02:00:15;3.35;;;1.00;;
75620;SDS011;64574;48.506;-2.750;2023-02-03T02:02:42;2.33;;;1.00;;
75620;SDS011;64574;48.506;-2.750;2023-02-03T02:07:57;1.33;;;0.70;;
75620;SDS011;64574;48.506;-2.750;2023-02-03T02:10:24;2.90;;;0.90;;
75620;SDS011;64574;48.506;-2.750;2023-02-03T02:12:50;3.67;;;1.10;;
75620;SDS011;64574;48.506;-2.750;2023-02-03T02:15:18;2.58;;;0.85;;
75620;SDS011;64574;48.506;-2.750;2023-02-03T02:21:10;2.90;;;0.93;;
75620;SDS011;64574;48.506;-2.750;2023-02-03T02:24:12;4.85;;;1.58;;
75620;SDS011;64574;48.506;-2.750;2023-02-03T02:31:59;2.55;;;1.00;;
75620;SDS011;64574;48.506;-2.750;2023-02-03T02:37:22;2.10;;;0.90;;
75620;SDS011;64574;48.506;-2.750;2023-02-03T02:40:22;3.47;;;0.98;;
75620;SDS011;64574;48.506;-2.750;2023-02-03T02:45:23;2.35;;;0.85;;
75620;SDS011;64574;48.506;-2.750;2023-02-03T02:47:55;2.75;;;1.20;;
75620;SDS011;64574;48.506;-2.750;2023-02-03T02:50:30;3.72;;;0.90;;
75620;SDS011;64574;48.506;-2.750;2023-02-03T02:53:00;3.90;;;1.00;;
75620;SDS011;64574;48.506;-2.750;2023-02-03T02:55:29;2.47;;;1.13;;
75620;SDS011;64574;48.506;-2.750;2023-02-03T02:57:59;2.97;;;1.20;;
75620;SDS011;64574;48.506;-2.750;2023-02-03T03:00:30;4.18;;;1.38;;
75620;SDS011;64574;48.506;-2.750;2023-02-03T03:03:05;3.33;;;1.30;;
75620;SDS011;64574;48.506;-2.750;2023-02-03T03:06:01;2.72;;;1.08;;
75620;SDS011;64574;48.506;-2.750;2023-02-03T03:08:42;2.58;;;1.02;;
75620;SDS011;64574;48.506;-2.750;2023-02-03T03:12:00;3.17;;;1.00;;
75620;SDS011;64574;48.506;-2.750;2023-02-03T03:14:26;3.03;;;1.00;;
75620;SDS011;64574;48.506;-2.750;2023-02-03T03:17:03;1.90;;;1.10;;
75620;SDS011;64574;48.506;-2.750;2023-02-03T03:19:33;3.53;;;1.33;;
75620;SDS011;64574;48.506;-2.750;2023-02-03T03:22:03;3.30;;;1.30;;
75620;SDS011;64574;48.506;-2.750;2023-02-03T03:24:33;2.13;;;0.98;;
75620;SDS011;64574;48.506;-2.750;2023-02-03T03:27:06;3.90;;;1.48;;
75620;SDS011;64574;48.506;-2.750;2023-02-03T03:29:43;4.25;;;1.27;;
75620;SDS011;64574;48.506;-2.750;2023-02-03T03:32:14;3.13;;;0.93;;
75620;SDS011;64574;48.506;-2.750;2023-02-03T03:34:40;2.83;;;1.13;;
75620;SDS011;64574;48.506;-2.750;2023-02-03T03:39:55;3.95;;;1.20;;
75620;SDS011;64574;48.506;-2.750;2023-02-03T03:42:33;4.10;;;1.50;;
75620;SDS011;64574;48.506;-2.750;2023-02-03T03:47:53;5.18;;;1.30;;
75620;SDS011;64574;48.506;-2.750;2023-02-03T03:50:27;4.10;;;1.13;;
75620;SDS011;64574;48.506;-2.750;2023-02-03T03:52:58;2.78;;;1.48;;
75620;SDS011;64574;48.506;-2.750;2023-02-03T03:55:27;3.85;;;1.40;;
75620;SDS011;64574;48.506;-2.750;2023-02-03T03:57:57;3.95;;;1.20;;
75620;SDS011;64574;48.506;-2.750;2023-02-03T04:00:36;4.35;;;1.42;;
75620;SDS011;64574;48.506;-2.750;2023-02-03T04:03:06;6.43;;;1.88;;
75620;SDS011;64574;48.506;-2.750;2023-02-03T04:05:37;3.47;;;1.30;;
75620;SDS011;64574;48.506;-2.750;2023-02-03T04:08:03;4.88;;;1.25;;
75620;SDS011;64574;48.506;-2.750;2023-02-03T04:10:33;4.57;;;1.45;;
75620;SDS011;64574;48.506;-2.750;2023-02-03T04:13:04;3.00;;;1.30;;
75620;SDS011;64574;48.506;-2.750;2023-02-03T04:15:30;3.00;;;1.15;;
75620;SDS011;64574;48.506;-2.750;2023-02-03T04:17:57;3.75;;;1.50;;
75620;SDS011;64574;48.506;-2.750;2023-02-03T04:20:23;4.00;;;1.20;;
75620;SDS011;64574;48.506;-2.750;2023-02-03T04:22:49;3.05;;;1.48;;
75620;SDS011;64574;48.506;-2.750;2023-02-03T04:25:15;2.67;;;1.15;;
75620;SDS011;64574;48.506;-2.750;2023-02-03T04:27:41;4.22;;;1.30;;
75620;SDS011;64574;48.506;-2.750;2023-02-03T04:30:06;3.50;;;1.27;;
75620;SDS011;64574;48.506;-2.750;2023-02-03T04:32:33;3.03;;;1.20;;
75620;SDS011;64574;48.506;-2.750;2023-02-03T04:35:03;2.17;;;1.20;;
75620;SDS011;64574;48.506;-2.750;2023-02-03T04:37:29;4.57;;;1.50;;
75620;SDS011;64574;48.506;-2.750;2023-02-03T04:39:56;5.22;;;1.35;;
75620;SDS011;64574;48.506;-2.750;2023-02-03T04:42:22;4.53;;;1.70;;
75620;SDS011;64574;48.506;-2.750;2023-02-03T04:44:49;3.00;;;1.25;;
75620;SDS011;64574;48.506;-2.750;2023-02-03T04:47:15;3.60;;;1.30;;
75620;SDS011;64574;48.506;-2.750;2023-02-03T04:49:41;2.38;;;1.33;;
75620;SDS011;64574;48.506;-2.750;2023-02-03T04:52:07;4.95;;;1.40;;
75620;SDS011;64574;48.506;-2.750;2023-02-03T04:54:33;3.33;;;1.35;;
75620;SDS011;64574;48.506;-2.750;2023-02-03T04:56:59;3.65;;;1.52;;
75620;SDS011;64574;48.506;-2.750;2023-02-03T04:59:24;2.95;;;1.60;;
75620;SDS011;64574;48.506;-2.750;2023-02-03T05:01:50;3.08;;;1.33;;
75620;SDS011;64574;48.506;-2.750;2023-02-03T05:04:16;4.55;;;1.40;;
75620;SDS011;64574;48.506;-2.750;2023-02-03T05:06:42;3.10;;;1.23;;
75620;SDS011;64574;48.506;-2.750;2023-02-03T05:09:07;2.50;;;1.20;;
75620;SDS011;64574;48.506;-2.750;2023-02-03T05:11:33;2.75;;;1.35;;
75620;SDS011;64574;48.506;-2.750;2023-02-03T05:13:58;3.35;;;1.48;;
75620;SDS011;64574;48.506;-2.750;2023-02-03T05:16:24;3.70;;;1.38;;
75620;SDS011;64574;48.506;-2.750;2023-02-03T05:18:50;3.47;;;2.03;;
75620;SDS011;64574;48.506;-2.750;2023-02-03T05:21:15;3.53;;;1.17;;
75620;SDS011;64574;48.506;-2.750;2023-02-03T05:23:41;2.40;;;1.25;;
75620;SDS011;64574;48.506;-2.750;2023-02-03T05:26:07;5.93;;;1.50;;
75620;SDS011;64574;48.506;-2.750;2023-02-03T05:28:33;4.00;;;1.27;;
75620;SDS011;64574;48.506;-2.750;2023-02-03T05:30:59;3.65;;;1.40;;
75620;SDS011;64574;48.506;-2.750;2023-02-03T05:33:25;2.45;;;1.25;;
75620;SDS011;64574;48.506;-2.750;2023-02-03T05:35:51;4.25;;;1.45;;
75620;SDS011;64574;48.506;-2.750;2023-02-03T05:38:17;4.32;;;1.83;;
75620;SDS011;64574;48.506;-2.750;2023-02-03T05:40:43;3.60;;;1.73;;
75620;SDS011;64574;48.506;-2.750;2023-02-03T05:43:29;2.95;;;1.42;;
75620;SDS011;64574;48.506;-2.750;2023-02-03T05:45:58;2.70;;;1.10;;
75620;SDS011;64574;48.506;-2.750;2023-02-03T05:48:27;3.30;;;1.40;;
75620;SDS011;64574;48.506;-2.750;2023-02-03T05:50:53;3.60;;;1.70;;
75620;SDS011;64574;48.506;-2.750;2023-02-03T05:53:19;4.05;;;1.58;;
75620;SDS011;64574;48.506;-2.750;2023-02-03T05:55:44;3.60;;;1.35;;
75620;SDS011;64574;48.506;-2.750;2023-02-03T05:58:10;2.92;;;1.52;;
75620;SDS011;64574;48.506;-2.750;2023-02-03T06:00:36;4.22;;;1.77;;
75620;SDS011;64574;48.506;-2.750;2023-02-03T06:03:02;2.58;;;1.30;;
75620;SDS011;64574;48.506;-2.750;2023-02-03T06:05:29;3.05;;;1.10;;
75620;SDS011;64574;48.506;-2.750;2023-02-03T06:07:56;3.75;;;1.67;;
75620;SDS011;64574;48.506;-2.750;2023-02-03T06:10:22;2.85;;;1.30;;
75620;SDS011;64574;48.506;-2.750;2023-02-03T06:12:49;2.42;;;1.10;;
75620;SDS011;64574;48.506;-2.750;2023-02-03T06:15:15;3.83;;;1.33;;
75620;SDS011;64574;48.506;-2.750;2023-02-03T06:17:44;3.90;;;1.48;;
75620;SDS011;64574;48.506;-2.750;2023-02-03T06:20:12;3.15;;;1.40;;
75620;SDS011;64574;48.506;-2.750;2023-02-03T06:22:40;2.25;;;1.20;;
75620;SDS011;64574;48.506;-2.750;2023-02-03T06:25:06;3.20;;;1.10;;
75620;SDS011;64574;48.506;-2.750;2023-02-03T06:27:32;4.60;;;1.30;;
75620;SDS011;64574;48.506;-2.750;2023-02-03T06:29:58;3.00;;;1.40;;
75620;SDS011;64574;48.506;-2.750;2023-02-03T06:32:23;4.65;;;1.45;;
75620;SDS011;64574;48.506;-2.750;2023-02-03T06:34:49;2.42;;;1.38;;
75620;SDS011;64574;48.506;-2.750;2023-02-03T06:37:15;3.80;;;1.80;;
75620;SDS011;64574;48.506;-2.750;2023-02-03T06:39:40;2.97;;;1.23;;
75620;SDS011;64574;48.506;-2.750;2023-02-03T06:42:06;2.80;;;1.38;;
75620;SDS011;64574;48.506;-2.750;2023-02-03T06:44:32;3.70;;;1.38;;
75620;SDS011;64574;48.506;-2.750;2023-02-03T06:46:57;4.53;;;1.67;;
75620;SDS011;64574;48.506;-2.750;2023-02-03T06:49:23;5.22;;;1.40;;
75620;SDS011;64574;48.506;-2.750;2023-02-03T06:51:49;3.30;;;1.70;;
75620;SDS011;64574;48.506;-2.750;2023-02-03T06:54:16;4.03;;;1.63;;
75620;SDS011;64574;48.506;-2.750;2023-02-03T06:56:42;5.22;;;1.33;;
75620;SDS011;64574;48.506;-2.750;2023-02-03T06:59:07;3.58;;;1.70;;
75620;SDS011;64574;48.506;-2.750;2023-02-03T07:01:34;5.03;;;1.80;;
75620;SDS011;64574;48.506;-2.750;2023-02-03T07:04:00;3.53;;;1.70;;
75620;SDS011;64574;48.506;-2.750;2023-02-03T07:06:26;5.72;;;1.88;;
75620;SDS011;64574;48.506;-2.750;2023-02-03T07:08:58;3.55;;;1.40;;
75620;SDS011;64574;48.506;-2.750;2023-02-03T07:11:25;3.30;;;1.80;;
75620;SDS011;64574;48.506;-2.750;2023-02-03T07:13:51;2.85;;;1.40;;
75620;SDS011;64574;48.506;-2.750;2023-02-03T07:16:16;2.97;;;1.52;;
75620;SDS011;64574;48.506;-2.750;2023-02-03T07:18:42;2.58;;;1.30;;
75620;SDS011;64574;48.506;-2.750;2023-02-03T07:21:08;4.50;;;1.83;;
75620;SDS011;64574;48.506;-2.750;2023-02-03T07:23:34;4.97;;;1.52;;
75620;SDS011;64574;48.506;-2.750;2023-02-03T07:26:00;3.00;;;1.40;;
75620;SDS011;64574;48.506;-2.750;2023-02-03T07:28:28;2.97;;;1.55;;
75620;SDS011;64574;48.506;-2.750;2023-02-03T07:30:54;3.65;;;1.70;;
75620;SDS011;64574;48.506;-2.750;2023-02-03T07:33:20;3.38;;;1.55;;
75620;SDS011;64574;48.506;-2.750;2023-02-03T07:36:19;5.00;;;1.83;;
75620;SDS011;64574;48.506;-2.750;2023-02-03T07:38:37;3.47;;;1.55;;
75620;SDS011;64574;48.506;-2.750;2023-02-03T07:41:03;4.72;;;1.77;;
75620;SDS011;64574;48.506;-2.750;2023-02-03T07:43:30;4.07;;;1.77;;
75620;SDS011;64574;48.506;-2.750;2023-02-03T07:45:56;4.88;;;1.55;;
75620;SDS011;64574;48.506;-2.750;2023-02-03T07:48:21;4.88;;;1.80;;
75620;SDS011;64574;48.506;-2.750;2023-02-03T07:50:47;3.20;;;1.60;;
75620;SDS011;64574;48.506;-2.750;2023-02-03T07:53:14;3.53;;;2.00;;
75620;SDS011;64574;48.506;-2.750;2023-02-03T07:55:40;4.07;;;1.70;;
75620;SDS011;64574;48.506;-2.750;2023-02-03T07:58:06;4.63;;;1.80;;
75620;SDS011;64574;48.506;-2.750;2023-02-03T08:00:32;4.70;;;1.90;;
75620;SDS011;64574;48.506;-2.750;2023-02-03T08:02:58;4.78;;;1.80;;
75620;SDS011;64574;48.506;-2.750;2023-02-03T08:05:23;2.60;;;1.40;;
75620;SDS011;64574;48.506;-2.750;2023-02-03T08:07:49;6.05;;;2.15;;
75620;SDS011;64574;48.506;-2.750;2023-02-03T08:10:14;4.95;;;1.85;;
75620;SDS011;64574;48.506;-2.750;2023-02-03T08:12:41;3.45;;;1.60;;
75620;SDS011;64574;48.506;-2.750;2023-02-03T08:15:08;3.45;;;1.58;;
75620;SDS011;64574;48.506;-2.750;2023-02-03T08:17:35;3.80;;;1.83;;
75620;SDS011;64574;48.506;-2.750;2023-02-03T08:20:00;4.03;;;1.70;;
75620;SDS011;64574;48.506;-2.750;2023-02-03T08:22:26;4.70;;;1.98;;
75620;SDS011;64574;48.506;-2.750;2023-02-03T08:24:52;4.72;;;1.98;;
75620;SDS011;64574;48.506;-2.750;2023-02-03T08:27:18;3.25;;;1.80;;
75620;SDS011;64574;48.506;-2.750;2023-02-03T08:29:46;4.50;;;1.83;;
75620;SDS011;64574;48.506;-2.750;2023-02-03T08:32:13;3.15;;;1.63;;
75620;SDS011;64574;48.506;-2.750;2023-02-03T08:34:40;4.57;;;1.80;;
75620;SDS011;64574;48.506;-2.750;2023-02-03T08:37:06;4.65;;;1.70;;
75620;SDS011;64574;48.506;-2.750;2023-02-03T08:39:32;4.47;;;1.42;;
75620;SDS011;64574;48.506;-2.750;2023-02-03T08:41:58;4.25;;;1.90;;
75620;SDS011;64574;48.506;-2.750;2023-02-03T08:44:24;4.55;;;1.98;;
75620;SDS011;64574;48.506;-2.750;2023-02-03T08:46:51;3.15;;;1.80;;
75620;SDS011;64574;48.506;-2.750;2023-02-03T08:49:17;3.65;;;1.92;;
75620;SDS011;64574;48.506;-2.750;2023-02-03T08:51:45;3.13;;;1.65;;
75620;SDS011;64574;48.506;-2.750;2023-02-03T08:54:11;3.28;;;1.65;;
75620;SDS011;64574;48.506;-2.750;2023-02-03T08:56:38;4.93;;;1.83;;
75620;SDS011;64574;48.506;-2.750;2023-02-03T08:59:04;3.35;;;1.73;;
75620;SDS011;64574;48.506;-2.750;2023-02-03T09:01:29;3.00;;;1.58;;
75620;SDS011;64574;48.506;-2.750;2023-02-03T09:03:55;2.60;;;1.80;;
75620;SDS011;64574;48.506;-2.750;2023-02-03T09:06:21;3.70;;;1.50;;
75620;SDS011;64574;48.506;-2.750;2023-02-03T09:08:47;4.15;;;1.52;;
75620;SDS011;64574;48.506;-2.750;2023-02-03T09:11:13;3.97;;;1.60;;
75620;SDS011;64574;48.506;-2.750;2023-02-03T09:13:41;3.10;;;1.38;;
75620;SDS011;64574;48.506;-2.750;2023-02-03T09:16:10;3.00;;;1.50;;
75620;SDS011;64574;48.506;-2.750;2023-02-03T09:18:36;3.72;;;1.48;;
75620;SDS011;64574;48.506;-2.750;2023-02-03T09:21:06;2.53;;;1.58;;
75620;SDS011;64574;48.506;-2.750;2023-02-03T09:23:35;2.35;;;1.33;;
75620;SDS011;64574;48.506;-2.750;2023-02-03T09:26:04;2.30;;;1.30;;
75620;SDS011;64574;48.506;-2.750;2023-02-03T09:28:32;2.30;;;1.20;;
75620;SDS011;64574;48.506;-2.750;2023-02-03T09:31:02;2.97;;;1.30;;
75620;SDS011;64574;48.506;-2.750;2023-02-03T09:33:29;4.13;;;1.38;;
75620;SDS011;64574;48.506;-2.750;2023-02-03T09:35:56;1.88;;;1.20;;
75620;SDS011;64574;48.506;-2.750;2023-02-03T09:38:21;3.10;;;1.10;;
75620;SDS011;64574;48.506;-2.750;2023-02-03T09:40:50;2.33;;;1.35;;
75620;SDS011;64574;48.506;-2.750;2023-02-03T09:46:06;4.20;;;1.85;;
75620;SDS011;64574;48.506;-2.750;2023-02-03T09:48:39;2.60;;;1.25;;
75620;SDS011;64574;48.506;-2.750;2023-02-03T09:51:17;2.25;;;1.40;;
75620;SDS011;64574;48.506;-2.750;2023-02-03T09:56:47;2.85;;;1.30;;
75620;SDS011;64574;48.506;-2.750;2023-02-03T09:59:16;2.42;;;1.20;;
75620;SDS011;64574;48.506;-2.750;2023-02-03T10:07:10;2.10;;;1.00;;
75620;SDS011;64574;48.506;-2.750;2023-02-03T10:09:52;1.83;;;1.00;;
75620;SDS011;64574;48.506;-2.750;2023-02-03T10:17:53;2.25;;;0.90;;
75620;SDS011;64574;48.506;-2.750;2023-02-03T10:20:33;2.00;;;0.98;;
75620;SDS011;64574;48.506;-2.750;2023-02-03T10:23:16;1.90;;;1.00;;
75620;SDS011;64574;48.506;-2.750;2023-02-03T10:25:51;2.10;;;1.10;;
75620;SDS011;64574;48.506;-2.750;2023-02-03T10:28:20;1.50;;;0.70;;
75620;SDS011;64574;48.506;-2.750;2023-02-03T10:30:53;1.05;;;0.50;;
75620;SDS011;64574;48.506;-2.750;2023-02-03T10:33:20;1.42;;;0.77;;
75620;SDS011;64574;48.506;-2.750;2023-02-03T10:35:49;2.17;;;0.60;;
75620;SDS011;64574;48.506;-2.750;2023-02-03T10:41:20;0.77;;;0.50;;
75620;SDS011;64574;48.506;-2.750;2023-02-03T10:43:47;1.23;;;0.50;;
75620;SDS011;64574;48.506;-2.750;2023-02-03T10:46:27;1.27;;;0.60;;
75620;SDS011;64574;48.506;-2.750;2023-02-03T10:48:55;2.78;;;0.82;;
75620;SDS011;64574;48.506;-2.750;2023-02-03T10:51:23;4.18;;;0.90;;
75620;SDS011;64574;48.506;-2.750;2023-02-03T10:53:56;0.90;;;0.50;;
75620;SDS011;64574;48.506;-2.750;2023-02-03T10:58:56;1.15;;;0.60;;
75620;SDS011;64574;48.506;-2.750;2023-02-03T11:01:27;0.82;;;0.45;;
75620;SDS011;64574;48.506;-2.750;2023-02-03T11:07:06;1.45;;;0.60;;
75620;SDS011;64574;48.506;-2.750;2023-02-03T11:09:46;0.73;;;0.40;;
75620;SDS011;64574;48.506;-2.750;2023-02-03T11:12:16;1.67;;;0.30;;
75620;SDS011;64574;48.506;-2.750;2023-02-03T11:14:47;0.80;;;0.50;;
75620;SDS011;64574;48.506;-2.750;2023-02-03T11:19:55;5.05;;;0.65;;
75620;SDS011;64574;48.506;-2.750;2023-02-03T11:22:32;2.72;;;0.70;;
75620;SDS011;64574;48.506;-2.750;2023-02-03T11:25:02;0.80;;;0.50;;
75620;SDS011;64574;48.506;-2.750;2023-02-03T11:27:39;1.95;;;0.50;;
75620;SDS011;64574;48.506;-2.750;2023-02-03T11:30:12;1.20;;;0.60;;
75620;SDS011;64574;48.506;-2.750;2023-02-03T11:32:40;0.55;;;0.30;;
75620;SDS011;64574;48.506;-2.750;2023-02-03T11:37:42;0.93;;;0.40;;
75620;SDS011;64574;48.506;-2.750;2023-02-03T11:42:39;0.50;;;0.30;;
75620;SDS011;64574;48.506;-2.750;2023-02-03T11:45:28;1.45;;;0.47;;
75620;SDS011;64574;48.506;-2.750;2023-02-03T11:48:01;0.77;;;0.32;;
75620;SDS011;64574;48.506;-2.750;2023-02-03T11:50:54;1.80;;;0.32;;
75620;SDS011;64574;48.506;-2.750;2023-02-03T11:56:31;1.42;;;0.35;;
75620;SDS011;64574;48.506;-2.750;2023-02-03T12:10:11;0.85;;;0.40;;
75620;SDS011;64574;48.506;-2.750;2023-02-03T12:26:08;0.80;;;0.40;;
75620;SDS011;64574;48.506;-2.750;2023-02-03T12:34:09;2.13;;;0.68;;
75620;SDS011;64574;48.506;-2.750;2023-02-03T12:36:48;0.75;;;0.40;;
75620;SDS011;64574;48.506;-2.750;2023-02-03T12:39:27;1.33;;;0.40;;
75620;SDS011;64574;48.506;-2.750;2023-02-03T12:42:20;1.30;;;0.50;;
75620;SDS011;64574;48.506;-2.750;2023-02-03T12:49:58;1.20;;;0.30;;
75620;SDS011;64574;48.506;-2.750;2023-02-03T12:52:46;2.67;;;0.43;;
75620;SDS011;64574;48.506;-2.750;2023-02-03T12:55:38;2.28;;;0.60;;
75620;SDS011;64574;48.506;-2.750;2023-02-03T13:00:39;2.92;;;0.50;;
75620;SDS011;64574;48.506;-2.750;2023-02-03T13:03:16;2.42;;;0.52;;
75620;SDS011;64574;48.506;-2.750;2023-02-03T13:05:58;1.20;;;0.45;;
75620;SDS011;64574;48.506;-2.750;2023-02-03T13:08:55;1.00;;;0.35;;
75620;SDS011;64574;48.506;-2.750;2023-02-03T13:13:59;2.90;;;0.55;;
75620;SDS011;64574;48.506;-2.750;2023-02-03T13:16:34;0.52;;;0.40;;
75620;SDS011;64574;48.506;-2.750;2023-02-03T13:19:08;0.63;;;0.20;;
75620;SDS011;64574;48.506;-2.750;2023-02-03T13:21:48;1.27;;;0.28;;
75620;SDS011;64574;48.506;-2.750;2023-02-03T13:24:15;0.22;;;0.20;;
75620;SDS011;64574;48.506;-2.750;2023-02-03T13:29:24;0.47;;;0.30;;
75620;SDS011;64574;48.506;-2.750;2023-02-03T13:40:33;4.03;;;0.63;;
75620;SDS011;64574;48.506;-2.750;2023-02-03T13:43:03;8.73;;;0.90;;
75620;SDS011;64574;48.506;-2.750;2023-02-03T13:45:42;2.83;;;0.50;;
75620;SDS011;64574;48.506;-2.750;2023-02-03T13:48:15;0.52;;;0.30;;
75620;SDS011;64574;48.506;-2.750;2023-02-03T13:50:46;3.70;;;0.50;;
75620;SDS011;64574;48.506;-2.750;2023-02-03T13:55:51;0.98;;;0.40;;
75620;SDS011;64574;48.506;-2.750;2023-02-03T13:58:19;1.08;;;0.40;;
75620;SDS011;64574;48.506;-2.750;2023-02-03T14:03:15;1.20;;;0.43;;
75620;SDS011;64574;48.506;-2.750;2023-02-03T14:05:44;2.25;;;0.50;;
75620;SDS011;64574;48.506;-2.750;2023-02-03T14:14:39;0.30;;;0.20;;
75620;SDS011;64574;48.506;-2.750;2023-02-03T14:16:47;1.13;;;0.30;;
75620;SDS011;64574;48.506;-2.750;2023-02-03T14:24:34;0.77;;;0.40;;
75620;SDS011;64574;48.506;-2.750;2023-02-03T14:27:04;1.15;;;0.43;;
75620;SDS011;64574;48.506;-2.750;2023-02-03T14:29:41;0.55;;;0.20;;
75620;SDS011;64574;48.506;-2.750;2023-02-03T14:32:07;1.02;;;0.40;;
75620;SDS011;64574;48.506;-2.750;2023-02-03T14:34:42;2.35;;;0.40;;
75620;SDS011;64574;48.506;-2.750;2023-02-03T14:39:44;0.90;;;0.43;;
75620;SDS011;64574;48.506;-2.750;2023-02-03T14:48:21;1.58;;;0.43;;
75620;SDS011;64574;48.506;-2.750;2023-02-03T14:53:42;1.05;;;0.40;;
75620;SDS011;64574;48.506;-2.750;2023-02-03T14:59:18;1.70;;;0.60;;
75620;SDS011;64574;48.506;-2.750;2023-02-03T15:04:26;2.55;;;0.52;;
75620;SDS011;64574;48.506;-2.750;2023-02-03T15:06:52;1.48;;;0.50;;
75620;SDS011;64574;48.506;-2.750;2023-02-03T15:09:23;1.27;;;0.43;;
75620;SDS011;64574;48.506;-2.750;2023-02-03T15:11:51;2.00;;;0.43;;
75620;SDS011;64574;48.506;-2.750;2023-02-03T15:14:21;1.73;;;0.50;;
75620;SDS011;64574;48.506;-2.750;2023-02-03T15:19:23;1.25;;;0.60;;
75620;SDS011;64574;48.506;-2.750;2023-02-03T15:21:51;1.13;;;0.50;;
75620;SDS011;64574;48.506;-2.750;2023-02-03T15:24:18;2.47;;;0.52;;
75620;SDS011;64574;48.506;-2.750;2023-02-03T15:26:48;1.50;;;0.60;;
75620;SDS011;64574;48.506;-2.750;2023-02-03T15:29:27;1.25;;;0.35;;
75620;SDS011;64574;48.506;-2.750;2023-02-03T15:31:56;2.55;;;0.70;;
75620;SDS011;64574;48.506;-2.750;2023-02-03T15:34:49;1.25;;;0.57;;
75620;SDS011;64574;48.506;-2.750;2023-02-03T15:42:36;1.77;;;0.50;;
75620;SDS011;64574;48.506;-2.750;2023-02-03T15:45:08;1.05;;;0.40;;
75620;SDS011;64574;48.506;-2.750;2023-02-03T15:47:46;1.20;;;0.63;;
75620;SDS011;64574;48.506;-2.750;2023-02-03T15:52:47;1.67;;;0.40;;
75620;SDS011;64574;48.506;-2.750;2023-02-03T15:55:59;1.92;;;0.52;;
75620;SDS011;64574;48.506;-2.750;2023-02-03T15:58:15;1.40;;;0.52;;
75620;SDS011;64574;48.506;-2.750;2023-02-03T16:00:52;1.52;;;0.60;;
75620;SDS011;64574;48.506;-2.750;2023-02-03T16:03:22;1.33;;;0.50;;
75620;SDS011;64574;48.506;-2.750;2023-02-03T16:08:47;0.47;;;0.35;;
75620;SDS011;64574;48.506;-2.750;2023-02-03T16:11:23;2.88;;;0.60;;
75620;SDS011;64574;48.506;-2.750;2023-02-03T16:13:51;1.88;;;0.50;;
75620;SDS011;64574;48.506;-2.750;2023-02-03T16:16:27;3.25;;;0.68;;
75620;SDS011;64574;48.506;-2.750;2023-02-03T16:18:57;1.80;;;0.70;;
75620;SDS011;64574;48.506;-2.750;2023-02-03T16:23:55;2.70;;;0.82;;
75620;SDS011;64574;48.506;-2.750;2023-02-03T16:26:22;2.65;;;1.05;;
75620;SDS011;64574;48.506;-2.750;2023-02-03T16:31:48;3.95;;;1.50;;
75620;SDS011;64574;48.506;-2.750;2023-02-03T16:34:32;3.58;;;1.33;;
75620;SDS011;64574;48.506;-2.750;2023-02-03T16:40:11;5.03;;;1.80;;
75620;SDS011;64574;48.506;-2.750;2023-02-03T16:42:56;6.10;;;2.70;;
75620;SDS011;64574;48.506;-2.750;2023-02-03T16:45:41;4.55;;;1.83;;
75620;SDS011;64574;48.506;-2.750;2023-02-03T16:48:25;3.25;;;1.30;;
75620;SDS011;64574;48.506;-2.750;2023-02-03T16:51:11;2.25;;;0.90;;
75620;SDS011;64574;48.506;-2.750;2023-02-03T16:53:39;1.73;;;0.73;;
75620;SDS011;64574;48.506;-2.750;2023-02-03T16:56:07;2.50;;;0.50;;
75620;SDS011;64574;48.506;-2.750;2023-02-03T16:58:33;1.52;;;0.60;;
75620;SDS011;64574;48.506;-2.750;2023-02-03T17:00:59;1.65;;;0.88;;
75620;SDS011;64574;48.506;-2.750;2023-02-03T17:03:27;3.83;;;0.82;;
75620;SDS011;64574;48.506;-2.750;2023-02-03T17:05:54;6.18;;;2.40;;
75620;SDS011;64574;48.506;-2.750;2023-02-03T17:08:22;9.35;;;3.63;;
75620;SDS011;64574;48.506;-2.750;2023-02-03T17:10:49;5.55;;;1.73;;
75620;SDS011;64574;48.506;-2.750;2023-02-03T17:13:16;3.70;;;1.35;;
75620;SDS011;64574;48.506;-2.750;2023-02-03T17:15:46;5.80;;;2.33;;
75620;SDS011;64574;48.506;-2.750;2023-02-03T17:18:14;3.53;;;1.27;;
75620;SDS011;64574;48.506;-2.750;2023-02-03T17:20:41;5.65;;;2.45;;
75620;SDS011;64574;48.506;-2.750;2023-02-03T17:23:07;3.33;;;1.83;;
75620;SDS011;64574;48.506;-2.750;2023-02-03T17:25:34;3.35;;;1.08;;
75620;SDS011;64574;48.506;-2.750;2023-02-03T17:28:01;1.70;;;0.75;;
75620;SDS011;64574;48.506;-2.750;2023-02-03T17:30:27;2.67;;;0.40;;
75620;SDS011;64574;48.506;-2.750;2023-02-03T17:32:57;1.00;;;0.40;;
75620;SDS011;64574;48.506;-2.750;2023-02-03T17:35:24;0.55;;;0.30;;
75620;SDS011;64574;48.506;-2.750;2023-02-03T17:37:50;1.92;;;0.60;;
75620;SDS011;64574;48.506;-2.750;2023-02-03T17:40:16;1.58;;;0.90;;